sensor_id;sensor_type;location;lat;lon;timestamp;P1;durP1;ratioP1;P2;durP2;ratioP2
22794;SDS011;11564;50.920;11.612;2023-09-12T00:01:30;11.80;;;7.07;;
22794;SDS011;11564;50.920;11.612;2023-09-12T00:03:57;13.03;;;7.03;;
22794;SDS011;11564;50.920;11.612;2023-09-12T00:06:23;11.43;;;6.53;;
22794;SDS011;11564;50.920;11.612;2023-09-12T00:08:50;12.50;;;6.03;;
22794;SDS011;11564;50.920;11.612;2023-09-12T00:11:16;11.17;;;7.00;;
22794;SDS011;11564;50.920;11.612;2023-09-12T00:13:42;19.17;;;7.00;;
22794;SDS011;11564;50.920;11.612;2023-09-12T00:16:09;12.93;;;7.20;;
22794;SDS011;11564;50.920;11.612;2023-09-12T00:18:35;13.30;;;7.57;;
22794;SDS011;11564;50.920;11.612;2023-09-12T00:21:02;9.53;;;6.73;;
22794;SDS011;11564;50.920;11.612;2023-09-12T00:23:28;14.00;;;7.47;;
22794;SDS011;11564;50.920;11.612;2023-09-12T00:25:54;12.03;;;6.90;;
22794;SDS011;11564;50.920;11.612;2023-09-12T00:28:20;11.73;;;7.03;;
22794;SDS011;11564;50.920;11.612;2023-09-12T00:30:47;10.53;;;7.23;;
22794;SDS011;11564;50.920;11.612;2023-09-12T00:33:13;14.20;;;7.03;;
22794;SDS011;11564;50.920;11.612;2023-09-12T00:35:38;13.63;;;7.93;;
22794;SDS011;11564;50.920;11.612;2023-09-12T00:38:04;12.00;;;6.40;;
22794;SDS011;11564;50.920;11.612;2023-09-12T00:40:31;9.53;;;6.87;;
22794;SDS011;11564;50.920;11.612;2023-09-12T00:42:57;14.90;;;6.70;;
22794;SDS011;11564;50.920;11.612;2023-09-12T00:45:23;15.27;;;7.33;;
22794;SDS011;11564;50.920;11.612;2023-09-12T00:47:49;12.97;;;7.10;;
22794;SDS011;11564;50.920;11.612;2023-09-12T00:50:16;20.63;;;7.33;;
22794;SDS011;11564;50.920;11.612;2023-09-12T00:52:43;10.33;;;6.70;;
22794;SDS011;11564;50.920;11.612;2023-09-12T00:55:09;14.57;;;6.53;;
22794;SDS011;11564;50.920;11.612;2023-09-12T00:57:35;13.40;;;7.73;;
22794;SDS011;11564;50.920;11.612;2023-09-12T01:00:01;13.50;;;6.77;;
22794;SDS011;11564;50.920;11.612;2023-09-12T01:02:36;16.60;;;8.00;;
22794;SDS011;11564;50.920;11.612;2023-09-12T01:05:02;15.67;;;7.33;;
22794;SDS011;11564;50.920;11.612;2023-09-12T01:07:30;19.63;;;7.50;;
22794;SDS011;11564;50.920;11.612;2023-09-12T01:09:55;17.20;;;7.30;;
22794;SDS011;11564;50.920;11.612;2023-09-12T01:12:21;11.10;;;7.50;;
22794;SDS011;11564;50.920;11.612;2023-09-12T01:14:47;12.43;;;7.77;;
22794;SDS011;11564;50.920;11.612;2023-09-12T01:17:13;26.20;;;7.50;;
22794;SDS011;11564;50.920;11.612;2023-09-12T01:19:39;14.33;;;7.50;;
22794;SDS011;11564;50.920;11.612;2023-09-12T01:22:27;16.83;;;7.83;;
22794;SDS011;11564;50.920;11.612;2023-09-12T01:25:29;13.20;;;6.97;;
22794;SDS011;11564;50.920;11.612;2023-09-12T01:28:26;18.00;;;8.97;;
22794;SDS011;11564;50.920;11.612;2023-09-12T01:30:59;14.17;;;7.07;;
22794;SDS011;11564;50.920;11.612;2023-09-12T01:33:27;14.70;;;7.07;;
22794;SDS011;11564;50.920;11.612;2023-09-12T01:35:54;13.43;;;7.70;;
22794;SDS011;11564;50.920;11.612;2023-09-12T01:38:20;11.57;;;7.60;;
22794;SDS011;11564;50.920;11.612;2023-09-12T01:40:49;19.83;;;8.13;;
22794;SDS011;11564;50.920;11.612;2023-09-12T01:43:17;11.07;;;7.47;;
22794;SDS011;11564;50.920;11.612;2023-09-12T01:45:45;15.63;;;7.70;;
22794;SDS011;11564;50.920;11.612;2023-09-12T01:48:16;11.10;;;7.70;;
22794;SDS011;11564;50.920;11.612;2023-09-12T01:50:44;16.93;;;8.30;;
22794;SDS011;11564;50.920;11.612;2023-09-12T01:53:10;10.80;;;8.00;;
22794;SDS011;11564;50.920;11.612;2023-09-12T01:55:36;18.10;;;7.87;;
22794;SDS011;11564;50.920;11.612;2023-09-12T01:58:02;14.80;;;7.00;;
22794;SDS011;11564;50.920;11.612;2023-09-12T02:00:28;12.90;;;7.53;;
22794;SDS011;11564;50.920;11.612;2023-09-12T02:02:54;12.50;;;7.77;;
22794;SDS011;11564;50.920;11.612;2023-09-12T02:05:20;16.20;;;7.70;;
22794;SDS011;11564;50.920;11.612;2023-09-12T02:07:47;12.93;;;7.90;;
22794;SDS011;11564;50.920;11.612;2023-09-12T02:10:13;11.67;;;7.70;;
22794;SDS011;11564;50.920;11.612;2023-09-12T02:12:39;13.77;;;7.60;;
22794;SDS011;11564;50.920;11.612;2023-09-12T02:15:05;11.43;;;7.80;;
22794;SDS011;11564;50.920;11.612;2023-09-12T02:17:31;17.93;;;7.80;;
22794;SDS011;11564;50.920;11.612;2023-09-12T02:19:56;15.43;;;7.90;;
22794;SDS011;11564;50.920;11.612;2023-09-12T02:22:22;16.97;;;8.50;;
22794;SDS011;11564;50.920;11.612;2023-09-12T02:24:48;25.43;;;9.10;;
22794;SDS011;11564;50.920;11.612;2023-09-12T02:27:14;16.83;;;8.07;;
22794;SDS011;11564;50.920;11.612;2023-09-12T02:29:40;15.30;;;8.90;;
22794;SDS011;11564;50.920;11.612;2023-09-12T02:32:06;13.40;;;8.30;;
22794;SDS011;11564;50.920;11.612;2023-09-12T02:34:32;16.63;;;8.20;;
22794;SDS011;11564;50.920;11.612;2023-09-12T02:36:58;15.40;;;7.83;;
22794;SDS011;11564;50.920;11.612;2023-09-12T02:39:24;13.23;;;7.53;;
22794;SDS011;11564;50.920;11.612;2023-09-12T02:41:49;12.07;;;8.00;;
22794;SDS011;11564;50.920;11.612;2023-09-12T02:44:15;9.37;;;7.33;;
22794;SDS011;11564;50.920;11.612;2023-09-12T02:46:41;14.60;;;7.67;;
22794;SDS011;11564;50.920;11.612;2023-09-12T02:49:07;16.40;;;8.40;;
22794;SDS011;11564;50.920;11.612;2023-09-12T02:51:32;16.67;;;9.13;;
22794;SDS011;11564;50.920;11.612;2023-09-12T02:53:58;9.50;;;8.03;;
22794;SDS011;11564;50.920;11.612;2023-09-12T02:56:24;17.57;;;8.87;;
22794;SDS011;11564;50.920;11.612;2023-09-12T02:58:49;9.73;;;8.13;;
22794;SDS011;11564;50.920;11.612;2023-09-12T03:01:15;22.23;;;8.37;;
22794;SDS011;11564;50.920;11.612;2023-09-12T03:03:41;19.13;;;8.63;;
22794;SDS011;11564;50.920;11.612;2023-09-12T03:06:07;11.90;;;8.13;;
22794;SDS011;11564;50.920;11.612;2023-09-12T03:08:33;11.70;;;8.27;;
22794;SDS011;11564;50.920;11.612;2023-09-12T03:10:58;11.27;;;7.80;;
22794;SDS011;11564;50.920;11.612;2023-09-12T03:13:25;21.03;;;8.57;;
22794;SDS011;11564;50.920;11.612;2023-09-12T03:15:51;14.77;;;7.90;;
22794;SDS011;11564;50.920;11.612;2023-09-12T03:18:17;17.10;;;8.63;;
22794;SDS011;11564;50.920;11.612;2023-09-12T03:20:43;19.33;;;7.73;;
22794;SDS011;11564;50.920;11.612;2023-09-12T03:23:08;10.63;;;7.40;;
22794;SDS011;11564;50.920;11.612;2023-09-12T03:25:37;12.20;;;7.27;;
22794;SDS011;11564;50.920;11.612;2023-09-12T03:28:04;14.40;;;7.63;;
22794;SDS011;11564;50.920;11.612;2023-09-12T03:30:32;21.67;;;8.93;;
22794;SDS011;11564;50.920;11.612;2023-09-12T03:32:58;15.60;;;8.13;;
22794;SDS011;11564;50.920;11.612;2023-09-12T03:35:25;13.67;;;8.87;;
22794;SDS011;11564;50.920;11.612;2023-09-12T03:37:51;12.97;;;9.37;;
22794;SDS011;11564;50.920;11.612;2023-09-12T03:40:17;15.10;;;9.33;;
22794;SDS011;11564;50.920;11.612;2023-09-12T03:42:42;9.10;;;8.27;;
22794;SDS011;11564;50.920;11.612;2023-09-12T03:45:08;16.23;;;9.50;;
22794;SDS011;11564;50.920;11.612;2023-09-12T03:47:34;16.10;;;9.03;;
22794;SDS011;11564;50.920;11.612;2023-09-12T03:50:00;16.13;;;8.80;;
22794;SDS011;11564;50.920;11.612;2023-09-12T03:52:25;12.10;;;7.77;;
22794;SDS011;11564;50.920;11.612;2023-09-12T03:54:51;9.17;;;7.27;;
22794;SDS011;11564;50.920;11.612;2023-09-12T03:57:16;15.87;;;9.00;;
22794;SDS011;11564;50.920;11.612;2023-09-12T03:59:42;15.53;;;7.97;;
22794;SDS011;11564;50.920;11.612;2023-09-12T04:02:08;18.13;;;9.70;;
22794;SDS011;11564;50.920;11.612;2023-09-12T04:04:33;19.03;;;8.10;;
22794;SDS011;11564;50.920;11.612;2023-09-12T04:06:59;17.90;;;9.00;;
22794;SDS011;11564;50.920;11.612;2023-09-12T04:09:26;13.10;;;9.23;;
22794;SDS011;11564;50.920;11.612;2023-09-12T04:11:52;22.10;;;8.90;;
22794;SDS011;11564;50.920;11.612;2023-09-12T04:14:18;23.30;;;9.80;;
22794;SDS011;11564;50.920;11.612;2023-09-12T04:16:44;21.90;;;9.20;;
22794;SDS011;11564;50.920;11.612;2023-09-12T04:19:09;26.17;;;9.23;;
22794;SDS011;11564;50.920;11.612;2023-09-12T04:21:35;12.60;;;8.03;;
22794;SDS011;11564;50.920;11.612;2023-09-12T04:24:00;14.03;;;8.13;;
22794;SDS011;11564;50.920;11.612;2023-09-12T04:26:26;10.00;;;8.57;;
22794;SDS011;11564;50.920;11.612;2023-09-12T04:28:51;16.30;;;8.33;;
22794;SDS011;11564;50.920;11.612;2023-09-12T04:31:17;15.27;;;8.57;;
22794;SDS011;11564;50.920;11.612;2023-09-12T04:33:43;11.60;;;8.40;;
22794;SDS011;11564;50.920;11.612;2023-09-12T04:36:08;13.53;;;10.00;;
22794;SDS011;11564;50.920;11.612;2023-09-12T04:38:34;12.80;;;7.90;;
22794;SDS011;11564;50.920;11.612;2023-09-12T04:41:01;15.67;;;9.47;;
22794;SDS011;11564;50.920;11.612;2023-09-12T04:43:30;19.63;;;8.40;;
22794;SDS011;11564;50.920;11.612;2023-09-12T04:45:56;14.73;;;9.53;;
22794;SDS011;11564;50.920;11.612;2023-09-12T04:48:22;14.77;;;9.20;;
22794;SDS011;11564;50.920;11.612;2023-09-12T04:50:48;11.07;;;8.07;;
22794;SDS011;11564;50.920;11.612;2023-09-12T04:53:14;16.47;;;9.10;;
22794;SDS011;11564;50.920;11.612;2023-09-12T04:55:39;14.77;;;9.03;;
22794;SDS011;11564;50.920;11.612;2023-09-12T04:58:05;18.10;;;9.77;;
22794;SDS011;11564;50.920;11.612;2023-09-12T05:00:31;13.30;;;9.70;;
22794;SDS011;11564;50.920;11.612;2023-09-12T05:02:58;10.43;;;9.00;;
22794;SDS011;11564;50.920;11.612;2023-09-12T05:05:23;15.57;;;9.63;;
22794;SDS011;11564;50.920;11.612;2023-09-12T05:07:50;19.37;;;8.77;;
22794;SDS011;11564;50.920;11.612;2023-09-12T05:10:18;28.73;;;10.40;;
22794;SDS011;11564;50.920;11.612;2023-09-12T05:12:44;13.43;;;8.87;;
22794;SDS011;11564;50.920;11.612;2023-09-12T05:15:10;12.00;;;9.13;;
22794;SDS011;11564;50.920;11.612;2023-09-12T05:17:35;13.50;;;9.60;;
22794;SDS011;11564;50.920;11.612;2023-09-12T05:20:02;17.20;;;9.77;;
22794;SDS011;11564;50.920;11.612;2023-09-12T05:22:29;16.23;;;10.07;;
22794;SDS011;11564;50.920;11.612;2023-09-12T05:24:55;19.60;;;9.37;;
22794;SDS011;11564;50.920;11.612;2023-09-12T05:27:21;14.63;;;9.37;;
22794;SDS011;11564;50.920;11.612;2023-09-12T05:29:47;14.37;;;8.70;;
22794;SDS011;11564;50.920;11.612;2023-09-12T05:32:12;13.43;;;9.83;;
22794;SDS011;11564;50.920;11.612;2023-09-12T05:34:38;18.43;;;9.57;;
22794;SDS011;11564;50.920;11.612;2023-09-12T05:37:04;12.77;;;9.27;;
22794;SDS011;11564;50.920;11.612;2023-09-12T05:39:29;15.10;;;10.60;;
22794;SDS011;11564;50.920;11.612;2023-09-12T05:41:55;15.13;;;10.07;;
22794;SDS011;11564;50.920;11.612;2023-09-12T05:44:20;11.57;;;10.20;;
22794;SDS011;11564;50.920;11.612;2023-09-12T05:46:46;16.20;;;9.57;;
22794;SDS011;11564;50.920;11.612;2023-09-12T05:49:13;14.80;;;10.13;;
22794;SDS011;11564;50.920;11.612;2023-09-12T05:51:39;12.13;;;9.23;;
22794;SDS011;11564;50.920;11.612;2023-09-12T05:54:05;17.50;;;10.10;;
22794;SDS011;11564;50.920;11.612;2023-09-12T05:56:31;20.90;;;9.63;;
22794;SDS011;11564;50.920;11.612;2023-09-12T05:58:56;27.33;;;9.90;;
22794;SDS011;11564;50.920;11.612;2023-09-12T06:01:22;20.27;;;11.20;;
22794;SDS011;11564;50.920;11.612;2023-09-12T06:03:48;21.23;;;11.80;;
22794;SDS011;11564;50.920;11.612;2023-09-12T06:06:14;18.40;;;12.30;;
22794;SDS011;11564;50.920;11.612;2023-09-12T06:08:39;17.40;;;11.50;;
22794;SDS011;11564;50.920;11.612;2023-09-12T06:11:05;17.47;;;11.60;;
22794;SDS011;11564;50.920;11.612;2023-09-12T06:13:31;16.37;;;10.80;;
22794;SDS011;11564;50.920;11.612;2023-09-12T06:15:57;17.63;;;11.90;;
22794;SDS011;11564;50.920;11.612;2023-09-12T06:18:23;14.93;;;11.57;;
22794;SDS011;11564;50.920;11.612;2023-09-12T06:20:49;15.40;;;10.97;;
22794;SDS011;11564;50.920;11.612;2023-09-12T06:23:15;16.37;;;11.87;;
22794;SDS011;11564;50.920;11.612;2023-09-12T06:25:40;15.07;;;10.90;;
22794;SDS011;11564;50.920;11.612;2023-09-12T06:28:08;18.07;;;11.60;;
22794;SDS011;11564;50.920;11.612;2023-09-12T06:30:35;18.40;;;11.80;;
22794;SDS011;11564;50.920;11.612;2023-09-12T06:33:00;18.50;;;10.90;;
22794;SDS011;11564;50.920;11.612;2023-09-12T06:35:26;16.50;;;11.83;;
22794;SDS011;11564;50.920;11.612;2023-09-12T06:37:52;20.67;;;12.30;;
22794;SDS011;11564;50.920;11.612;2023-09-12T06:40:17;17.33;;;11.80;;
22794;SDS011;11564;50.920;11.612;2023-09-12T06:42:43;15.00;;;10.50;;
22794;SDS011;11564;50.920;11.612;2023-09-12T06:45:08;22.50;;;11.43;;
22794;SDS011;11564;50.920;11.612;2023-09-12T06:47:34;15.10;;;10.17;;
22794;SDS011;11564;50.920;11.612;2023-09-12T06:50:00;14.87;;;11.27;;
22794;SDS011;11564;50.920;11.612;2023-09-12T06:52:26;18.13;;;10.20;;
22794;SDS011;11564;50.920;11.612;2023-09-12T06:54:52;20.13;;;11.30;;
22794;SDS011;11564;50.920;11.612;2023-09-12T06:57:17;21.10;;;12.07;;
22794;SDS011;11564;50.920;11.612;2023-09-12T06:59:43;20.00;;;11.50;;
22794;SDS011;11564;50.920;11.612;2023-09-12T07:02:14;21.80;;;12.37;;
22794;SDS011;11564;50.920;11.612;2023-09-12T07:04:39;18.43;;;11.20;;
22794;SDS011;11564;50.920;11.612;2023-09-12T07:07:05;26.63;;;11.53;;
22794;SDS011;11564;50.920;11.612;2023-09-12T07:09:31;27.63;;;10.90;;
22794;SDS011;11564;50.920;11.612;2023-09-12T07:11:56;12.90;;;10.70;;
22794;SDS011;11564;50.920;11.612;2023-09-12T07:14:22;25.20;;;11.43;;
22794;SDS011;11564;50.920;11.612;2023-09-12T07:16:50;21.20;;;11.57;;
22794;SDS011;11564;50.920;11.612;2023-09-12T07:19:15;23.53;;;10.70;;
22794;SDS011;11564;50.920;11.612;2023-09-12T07:21:41;26.50;;;11.67;;
22794;SDS011;11564;50.920;11.612;2023-09-12T07:24:06;16.47;;;10.40;;
22794;SDS011;11564;50.920;11.612;2023-09-12T07:26:32;25.63;;;11.10;;
22794;SDS011;11564;50.920;11.612;2023-09-12T07:28:58;21.57;;;10.40;;
22794;SDS011;11564;50.920;11.612;2023-09-12T07:31:27;24.03;;;10.67;;
22794;SDS011;11564;50.920;11.612;2023-09-12T07:33:53;18.43;;;9.70;;
22794;SDS011;11564;50.920;11.612;2023-09-12T07:36:18;23.00;;;9.87;;
22794;SDS011;11564;50.920;11.612;2023-09-12T07:38:44;14.43;;;9.17;;
22794;SDS011;11564;50.920;11.612;2023-09-12T07:41:10;23.47;;;9.00;;
22794;SDS011;11564;50.920;11.612;2023-09-12T07:43:36;14.17;;;9.07;;
22794;SDS011;11564;50.920;11.612;2023-09-12T07:46:01;18.70;;;8.77;;
22794;SDS011;11564;50.920;11.612;2023-09-12T07:48:27;27.67;;;8.73;;
22794;SDS011;11564;50.920;11.612;2023-09-12T07:50:53;24.23;;;9.97;;
22794;SDS011;11564;50.920;11.612;2023-09-12T07:53:18;20.63;;;9.50;;
22794;SDS011;11564;50.920;11.612;2023-09-12T07:55:44;18.60;;;9.77;;
22794;SDS011;11564;50.920;11.612;2023-09-12T07:58:14;18.83;;;9.87;;
22794;SDS011;11564;50.920;11.612;2023-09-12T08:00:49;17.20;;;9.97;;
22794;SDS011;11564;50.920;11.612;2023-09-12T08:03:14;18.70;;;9.70;;
22794;SDS011;11564;50.920;11.612;2023-09-12T08:05:40;32.03;;;10.43;;
22794;SDS011;11564;50.920;11.612;2023-09-12T08:08:06;26.07;;;9.57;;
22794;SDS011;11564;50.920;11.612;2023-09-12T08:10:32;23.53;;;9.83;;
22794;SDS011;11564;50.920;11.612;2023-09-12T08:12:57;20.07;;;9.57;;
22794;SDS011;11564;50.920;11.612;2023-09-12T08:15:23;14.97;;;8.40;;
22794;SDS011;11564;50.920;11.612;2023-09-12T08:17:48;21.53;;;8.37;;
22794;SDS011;11564;50.920;11.612;2023-09-12T08:20:17;18.37;;;10.60;;
22794;SDS011;11564;50.920;11.612;2023-09-12T08:22:43;15.10;;;9.30;;
22794;SDS011;11564;50.920;11.612;2023-09-12T08:25:08;12.17;;;7.53;;
22794;SDS011;11564;50.920;11.612;2023-09-12T08:27:35;12.90;;;8.47;;
22794;SDS011;11564;50.920;11.612;2023-09-12T08:30:01;18.87;;;8.27;;
22794;SDS011;11564;50.920;11.612;2023-09-12T08:32:28;17.83;;;7.67;;
22794;SDS011;11564;50.920;11.612;2023-09-12T08:34:54;20.37;;;8.17;;
22794;SDS011;11564;50.920;11.612;2023-09-12T08:37:20;25.57;;;9.70;;
22794;SDS011;11564;50.920;11.612;2023-09-12T08:39:45;13.53;;;8.97;;
22794;SDS011;11564;50.920;11.612;2023-09-12T08:42:12;37.63;;;8.83;;
22794;SDS011;11564;50.920;11.612;2023-09-12T08:44:43;23.90;;;7.80;;
22794;SDS011;11564;50.920;11.612;2023-09-12T08:47:09;19.23;;;8.13;;
22794;SDS011;11564;50.920;11.612;2023-09-12T08:49:36;15.87;;;8.03;;
22794;SDS011;11564;50.920;11.612;2023-09-12T08:52:03;19.03;;;7.33;;
22794;SDS011;11564;50.920;11.612;2023-09-12T08:54:30;17.30;;;7.73;;
22794;SDS011;11564;50.920;11.612;2023-09-12T08:56:57;15.93;;;6.47;;
22794;SDS011;11564;50.920;11.612;2023-09-12T08:59:23;13.23;;;7.50;;
22794;SDS011;11564;50.920;11.612;2023-09-12T09:01:49;30.53;;;8.57;;
22794;SDS011;11564;50.920;11.612;2023-09-12T09:04:17;12.50;;;6.97;;
22794;SDS011;11564;50.920;11.612;2023-09-12T09:06:47;13.30;;;7.10;;
22794;SDS011;11564;50.920;11.612;2023-09-12T09:09:14;16.93;;;7.17;;
22794;SDS011;11564;50.920;11.612;2023-09-12T09:11:41;10.80;;;6.13;;
22794;SDS011;11564;50.920;11.612;2023-09-12T09:14:07;21.40;;;8.13;;
22794;SDS011;11564;50.920;11.612;2023-09-12T09:16:32;20.40;;;7.43;;
22794;SDS011;11564;50.920;11.612;2023-09-12T09:19:01;15.73;;;7.57;;
22794;SDS011;11564;50.920;11.612;2023-09-12T09:21:31;16.80;;;8.50;;
22794;SDS011;11564;50.920;11.612;2023-09-12T09:23:58;16.03;;;8.17;;
22794;SDS011;11564;50.920;11.612;2023-09-12T09:26:25;17.87;;;7.00;;
22794;SDS011;11564;50.920;11.612;2023-09-12T09:29:15;18.83;;;7.30;;
22794;SDS011;11564;50.920;11.612;2023-09-12T09:31:43;20.77;;;6.80;;
22794;SDS011;11564;50.920;11.612;2023-09-12T09:34:13;22.50;;;7.20;;
22794;SDS011;11564;50.920;11.612;2023-09-12T09:36:41;19.67;;;6.00;;
22794;SDS011;11564;50.920;11.612;2023-09-12T09:39:08;15.50;;;6.20;;
22794;SDS011;11564;50.920;11.612;2023-09-12T09:41:34;29.93;;;7.40;;
22794;SDS011;11564;50.920;11.612;2023-09-12T09:44:02;16.37;;;6.53;;
22794;SDS011;11564;50.920;11.612;2023-09-12T09:46:29;27.90;;;7.03;;
22794;SDS011;11564;50.920;11.612;2023-09-12T09:48:54;26.40;;;7.13;;
22794;SDS011;11564;50.920;11.612;2023-09-12T09:51:20;14.23;;;5.60;;
22794;SDS011;11564;50.920;11.612;2023-09-12T09:53:46;22.67;;;7.17;;
22794;SDS011;11564;50.920;11.612;2023-09-12T09:56:23;13.73;;;6.53;;
22794;SDS011;11564;50.920;11.612;2023-09-12T10:01:20;25.43;;;7.00;;
22794;SDS011;11564;50.920;11.612;2023-09-12T10:03:58;26.20;;;6.63;;
22794;SDS011;11564;50.920;11.612;2023-09-12T10:06:26;22.03;;;6.47;;
22794;SDS011;11564;50.920;11.612;2023-09-12T10:08:53;17.90;;;7.27;;
22794;SDS011;11564;50.920;11.612;2023-09-12T10:11:23;26.43;;;6.67;;
22794;SDS011;11564;50.920;11.612;2023-09-12T10:13:53;21.73;;;6.00;;
22794;SDS011;11564;50.920;11.612;2023-09-12T10:16:21;17.63;;;6.20;;
22794;SDS011;11564;50.920;11.612;2023-09-12T10:21:38;19.47;;;7.40;;
22794;SDS011;11564;50.920;11.612;2023-09-12T10:24:09;20.80;;;6.20;;
22794;SDS011;11564;50.920;11.612;2023-09-12T10:26:36;31.37;;;6.90;;
22794;SDS011;11564;50.920;11.612;2023-09-12T10:29:04;19.50;;;7.27;;
22794;SDS011;11564;50.920;11.612;2023-09-12T10:31:30;25.67;;;6.80;;
22794;SDS011;11564;50.920;11.612;2023-09-12T10:33:57;15.93;;;5.90;;
22794;SDS011;11564;50.920;11.612;2023-09-12T10:36:25;20.20;;;6.80;;
22794;SDS011;11564;50.920;11.612;2023-09-12T10:38:51;23.43;;;5.60;;
22794;SDS011;11564;50.920;11.612;2023-09-12T10:41:18;19.47;;;7.63;;
22794;SDS011;11564;50.920;11.612;2023-09-12T10:43:46;24.53;;;6.97;;
22794;SDS011;11564;50.920;11.612;2023-09-12T10:46:17;37.33;;;7.83;;
22794;SDS011;11564;50.920;11.612;2023-09-12T10:48:43;20.00;;;7.13;;
22794;SDS011;11564;50.920;11.612;2023-09-12T10:51:09;31.77;;;8.00;;
22794;SDS011;11564;50.920;11.612;2023-09-12T10:53:37;21.10;;;6.40;;
22794;SDS011;11564;50.920;11.612;2023-09-12T11:01:44;17.83;;;6.70;;
22794;SDS011;11564;50.920;11.612;2023-09-12T11:06:50;20.10;;;6.43;;
22794;SDS011;11564;50.920;11.612;2023-09-12T11:09:25;17.73;;;5.67;;
22794;SDS011;11564;50.920;11.612;2023-09-12T11:11:58;20.90;;;6.00;;
22794;SDS011;11564;50.920;11.612;2023-09-12T11:14:28;16.87;;;6.03;;
22794;SDS011;11564;50.920;11.612;2023-09-12T11:19:42;20.63;;;6.33;;
22794;SDS011;11564;50.920;11.612;2023-09-12T11:24:49;21.30;;;6.50;;
22794;SDS011;11564;50.920;11.612;2023-09-12T11:27:14;21.07;;;6.60;;
22794;SDS011;11564;50.920;11.612;2023-09-12T11:29:40;24.73;;;6.60;;
22794;SDS011;11564;50.920;11.612;2023-09-12T11:32:07;24.23;;;7.43;;
22794;SDS011;11564;50.920;11.612;2023-09-12T11:34:51;16.23;;;7.00;;
22794;SDS011;11564;50.920;11.612;2023-09-12T11:37:26;19.30;;;5.60;;
22794;SDS011;11564;50.920;11.612;2023-09-12T11:39:53;24.00;;;6.90;;
22794;SDS011;11564;50.920;11.612;2023-09-12T11:42:19;15.00;;;6.57;;
22794;SDS011;11564;50.920;11.612;2023-09-12T11:44:48;15.00;;;6.80;;
22794;SDS011;11564;50.920;11.612;2023-09-12T11:47:15;23.43;;;6.23;;
22794;SDS011;11564;50.920;11.612;2023-09-12T11:49:40;16.93;;;6.70;;
22794;SDS011;11564;50.920;11.612;2023-09-12T11:52:10;24.60;;;6.70;;
22794;SDS011;11564;50.920;11.612;2023-09-12T11:54:38;32.73;;;6.70;;
22794;SDS011;11564;50.920;11.612;2023-09-12T11:57:06;19.30;;;7.43;;
22794;SDS011;11564;50.920;11.612;2023-09-12T11:59:36;13.73;;;5.97;;
22794;SDS011;11564;50.920;11.612;2023-09-12T12:02:05;16.40;;;6.10;;
22794;SDS011;11564;50.920;11.612;2023-09-12T12:04:32;22.63;;;5.83;;
22794;SDS011;11564;50.920;11.612;2023-09-12T12:06:59;11.17;;;5.00;;
22794;SDS011;11564;50.920;11.612;2023-09-12T12:09:26;20.87;;;5.33;;
22794;SDS011;11564;50.920;11.612;2023-09-12T12:11:52;17.67;;;5.87;;
22794;SDS011;11564;50.920;11.612;2023-09-12T12:14:18;29.40;;;6.40;;
22794;SDS011;11564;50.920;11.612;2023-09-12T12:16:46;21.70;;;6.17;;
22794;SDS011;11564;50.920;11.612;2023-09-12T12:19:13;14.73;;;5.00;;
22794;SDS011;11564;50.920;11.612;2023-09-12T12:21:39;25.33;;;5.73;;
22794;SDS011;11564;50.920;11.612;2023-09-12T12:24:10;21.13;;;7.37;;
22794;SDS011;11564;50.920;11.612;2023-09-12T12:26:40;12.87;;;5.07;;
22794;SDS011;11564;50.920;11.612;2023-09-12T12:29:06;20.50;;;5.50;;
22794;SDS011;11564;50.920;11.612;2023-09-12T12:31:33;19.13;;;6.23;;
22794;SDS011;11564;50.920;11.612;2023-09-12T12:33:59;21.97;;;6.03;;
22794;SDS011;11564;50.920;11.612;2023-09-12T12:36:24;20.27;;;5.90;;
22794;SDS011;11564;50.920;11.612;2023-09-12T12:38:50;21.47;;;6.07;;
22794;SDS011;11564;50.920;11.612;2023-09-12T12:41:16;22.40;;;6.20;;
22794;SDS011;11564;50.920;11.612;2023-09-12T12:43:55;15.57;;;5.37;;
22794;SDS011;11564;50.920;11.612;2023-09-12T12:46:25;16.60;;;6.00;;
22794;SDS011;11564;50.920;11.612;2023-09-12T12:48:51;13.47;;;6.33;;
22794;SDS011;11564;50.920;11.612;2023-09-12T12:51:18;25.43;;;6.53;;
22794;SDS011;11564;50.920;11.612;2023-09-12T12:53:54;15.40;;;5.50;;
22794;SDS011;11564;50.920;11.612;2023-09-12T12:56:22;16.37;;;5.47;;
22794;SDS011;11564;50.920;11.612;2023-09-12T12:58:49;18.20;;;5.20;;
22794;SDS011;11564;50.920;11.612;2023-09-12T13:01:23;18.33;;;5.30;;
22794;SDS011;11564;50.920;11.612;2023-09-12T13:03:49;21.67;;;4.90;;
22794;SDS011;11564;50.920;11.612;2023-09-12T13:06:15;17.90;;;4.50;;
22794;SDS011;11564;50.920;11.612;2023-09-12T13:08:43;14.33;;;5.27;;
22794;SDS011;11564;50.920;11.612;2023-09-12T13:11:09;10.00;;;4.20;;
22794;SDS011;11564;50.920;11.612;2023-09-12T13:13:37;14.65;;;4.65;;
22794;SDS011;11564;50.920;11.612;2023-09-12T13:16:04;13.45;;;4.20;;
22794;SDS011;11564;50.920;11.612;2023-09-12T13:18:33;14.90;;;4.00;;
22794;SDS011;11564;50.920;11.612;2023-09-12T13:20:59;15.93;;;4.00;;
22794;SDS011;11564;50.920;11.612;2023-09-12T13:23:25;10.77;;;4.30;;
22794;SDS011;11564;50.920;11.612;2023-09-12T13:25:51;14.18;;;4.72;;
22794;SDS011;11564;50.920;11.612;2023-09-12T13:28:17;20.42;;;4.45;;
22794;SDS011;11564;50.920;11.612;2023-09-12T13:30:42;15.90;;;4.50;;
22794;SDS011;11564;50.920;11.612;2023-09-12T13:33:09;5.90;;;3.50;;
22794;SDS011;11564;50.920;11.612;2023-09-12T13:35:36;7.93;;;3.95;;
22794;SDS011;11564;50.920;11.612;2023-09-12T13:38:02;9.70;;;3.97;;
22794;SDS011;11564;50.920;11.612;2023-09-12T13:40:34;13.23;;;5.00;;
22794;SDS011;11564;50.920;11.612;2023-09-12T13:43:06;8.63;;;4.00;;
22794;SDS011;11564;50.920;11.612;2023-09-12T13:45:32;13.60;;;4.00;;
22794;SDS011;11564;50.920;11.612;2023-09-12T13:47:58;11.80;;;3.83;;
22794;SDS011;11564;50.920;11.612;2023-09-12T13:50:25;7.60;;;3.58;;
22794;SDS011;11564;50.920;11.612;2023-09-12T13:52:53;11.65;;;3.65;;
22794;SDS011;11564;50.920;11.612;2023-09-12T13:55:20;11.00;;;3.58;;
22794;SDS011;11564;50.920;11.612;2023-09-12T13:57:46;11.30;;;3.28;;
22794;SDS011;11564;50.920;11.612;2023-09-12T14:00:12;10.90;;;3.65;;
22794;SDS011;11564;50.920;11.612;2023-09-12T14:02:38;7.13;;;3.05;;
22794;SDS011;11564;50.920;11.612;2023-09-12T14:05:03;12.07;;;4.07;;
22794;SDS011;11564;50.920;11.612;2023-09-12T14:07:29;10.98;;;3.90;;
22794;SDS011;11564;50.920;11.612;2023-09-12T14:09:55;11.18;;;3.60;;
22794;SDS011;11564;50.920;11.612;2023-09-12T14:12:22;12.95;;;3.88;;
22794;SDS011;11564;50.920;11.612;2023-09-12T14:14:48;7.13;;;3.42;;
22794;SDS011;11564;50.920;11.612;2023-09-12T14:17:14;13.30;;;3.97;;
22794;SDS011;11564;50.920;11.612;2023-09-12T14:19:40;15.85;;;4.40;;
22794;SDS011;11564;50.920;11.612;2023-09-12T14:22:05;8.75;;;3.67;;
22794;SDS011;11564;50.920;11.612;2023-09-12T14:24:31;12.80;;;3.90;;
22794;SDS011;11564;50.920;11.612;2023-09-12T14:26:57;8.52;;;3.22;;
22794;SDS011;11564;50.920;11.612;2023-09-12T14:29:22;17.67;;;4.53;;
22794;SDS011;11564;50.920;11.612;2023-09-12T14:31:49;11.63;;;3.85;;
22794;SDS011;11564;50.920;11.612;2023-09-12T14:34:17;16.05;;;3.53;;
22794;SDS011;11564;50.920;11.612;2023-09-12T14:36:43;10.95;;;3.50;;
22794;SDS011;11564;50.920;11.612;2023-09-12T14:39:11;10.68;;;4.15;;